sensor_id;sensor_type;location;lat;lon;timestamp;P1;durP1;ratioP1;P2;durP2;ratioP2
35993;SDS011;22066;54.274;18.578;2023-05-08T00:01:59;16.87;;;6.20;;
35993;SDS011;22066;54.274;18.578;2023-05-08T00:04:25;15.27;;;5.43;;
35993;SDS011;22066;54.274;18.578;2023-05-08T00:06:51;17.33;;;6.70;;
35993;SDS011;22066;54.274;18.578;2023-05-08T00:09:18;15.63;;;5.70;;
35993;SDS011;22066;54.274;18.578;2023-05-08T00:11:44;14.73;;;6.33;;
35993;SDS011;22066;54.274;18.578;2023-05-08T00:14:10;12.30;;;5.47;;
35993;SDS011;22066;54.274;18.578;2023-05-08T00:16:36;14.57;;;5.73;;
35993;SDS011;22066;54.274;18.578;2023-05-08T00:19:02;11.20;;;5.23;;
35993;SDS011;22066;54.274;18.578;2023-05-08T00:21:28;12.47;;;5.40;;
35993;SDS011;22066;54.274;18.578;2023-05-08T00:23:55;15.10;;;5.97;;
35993;SDS011;22066;54.274;18.578;2023-05-08T00:26:21;12.20;;;5.57;;
35993;SDS011;22066;54.274;18.578;2023-05-08T00:28:47;14.77;;;5.57;;
35993;SDS011;22066;54.274;18.578;2023-05-08T00:31:13;15.67;;;5.07;;
35993;SDS011;22066;54.274;18.578;2023-05-08T00:33:39;14.00;;;5.20;;
35993;SDS011;22066;54.274;18.578;2023-05-08T00:36:05;12.17;;;5.07;;
35993;SDS011;22066;54.274;18.578;2023-05-08T00:38:32;12.20;;;5.03;;
35993;SDS011;22066;54.274;18.578;2023-05-08T00:40:58;13.67;;;5.87;;
35993;SDS011;22066;54.274;18.578;2023-05-08T00:43:25;12.70;;;5.03;;
35993;SDS011;22066;54.274;18.578;2023-05-08T00:45:52;15.57;;;5.97;;
35993;SDS011;22066;54.274;18.578;2023-05-08T00:48:19;14.07;;;5.40;;
35993;SDS011;22066;54.274;18.578;2023-05-08T00:50:46;12.03;;;5.50;;
35993;SDS011;22066;54.274;18.578;2023-05-08T00:53:12;11.73;;;4.90;;
35993;SDS011;22066;54.274;18.578;2023-05-08T00:55:39;10.47;;;4.77;;
35993;SDS011;22066;54.274;18.578;2023-05-08T00:58:05;14.37;;;5.23;;
35993;SDS011;22066;54.274;18.578;2023-05-08T01:00:31;10.73;;;4.43;;
35993;SDS011;22066;54.274;18.578;2023-05-08T01:02:58;12.70;;;4.47;;
35993;SDS011;22066;54.274;18.578;2023-05-08T01:05:28;14.68;;;4.95;;
35993;SDS011;22066;54.274;18.578;2023-05-08T01:07:55;7.97;;;4.10;;
35993;SDS011;22066;54.274;18.578;2023-05-08T01:10:21;11.40;;;4.27;;
35993;SDS011;22066;54.274;18.578;2023-05-08T01:12:57;14.47;;;4.77;;
35993;SDS011;22066;54.274;18.578;2023-05-08T01:15:59;9.13;;;4.20;;
35993;SDS011;22066;54.274;18.578;2023-05-08T01:18:18;11.60;;;4.53;;
35993;SDS011;22066;54.274;18.578;2023-05-08T01:20:58;9.03;;;4.07;;
35993;SDS011;22066;54.274;18.578;2023-05-08T01:29:15;13.20;;;5.37;;
35993;SDS011;22066;54.274;18.578;2023-05-08T01:32:06;11.73;;;4.93;;
35993;SDS011;22066;54.274;18.578;2023-05-08T01:34:34;13.93;;;4.90;;
35993;SDS011;22066;54.274;18.578;2023-05-08T01:37:04;9.93;;;4.33;;
35993;SDS011;22066;54.274;18.578;2023-05-08T01:39:44;8.35;;;4.78;;
35993;SDS011;22066;54.274;18.578;2023-05-08T01:42:14;8.80;;;3.83;;
35993;SDS011;22066;54.274;18.578;2023-05-08T01:44:46;9.37;;;4.63;;
35993;SDS011;22066;54.274;18.578;2023-05-08T01:47:13;12.17;;;4.67;;
35993;SDS011;22066;54.274;18.578;2023-05-08T01:49:41;11.20;;;4.47;;
35993;SDS011;22066;54.274;18.578;2023-05-08T01:52:11;19.67;;;5.73;;
35993;SDS011;22066;54.274;18.578;2023-05-08T01:54:40;9.80;;;4.60;;
35993;SDS011;22066;54.274;18.578;2023-05-08T01:57:08;10.93;;;4.87;;
35993;SDS011;22066;54.274;18.578;2023-05-08T01:59:34;12.83;;;5.00;;
35993;SDS011;22066;54.274;18.578;2023-05-08T02:02:01;8.77;;;4.47;;
35993;SDS011;22066;54.274;18.578;2023-05-08T02:04:28;13.27;;;4.67;;
35993;SDS011;22066;54.274;18.578;2023-05-08T02:06:54;11.03;;;4.73;;
35993;SDS011;22066;54.274;18.578;2023-05-08T02:09:21;12.03;;;5.27;;
35993;SDS011;22066;54.274;18.578;2023-05-08T02:11:48;13.37;;;5.33;;
35993;SDS011;22066;54.274;18.578;2023-05-08T02:14:16;13.93;;;4.93;;
35993;SDS011;22066;54.274;18.578;2023-05-08T02:16:43;10.37;;;3.33;;
35993;SDS011;22066;54.274;18.578;2023-05-08T02:19:09;10.17;;;4.20;;
35993;SDS011;22066;54.274;18.578;2023-05-08T02:21:36;10.70;;;5.03;;
35993;SDS011;22066;54.274;18.578;2023-05-08T02:24:03;12.33;;;4.70;;
35993;SDS011;22066;54.274;18.578;2023-05-08T02:26:31;10.47;;;4.57;;
35993;SDS011;22066;54.274;18.578;2023-05-08T02:28:57;11.03;;;4.53;;
35993;SDS011;22066;54.274;18.578;2023-05-08T02:31:25;13.83;;;7.17;;
35993;SDS011;22066;54.274;18.578;2023-05-08T02:33:52;18.60;;;6.50;;
35993;SDS011;22066;54.274;18.578;2023-05-08T02:36:18;16.77;;;5.90;;
35993;SDS011;22066;54.274;18.578;2023-05-08T02:38:46;17.30;;;6.03;;
35993;SDS011;22066;54.274;18.578;2023-05-08T02:41:13;14.35;;;6.03;;
35993;SDS011;22066;54.274;18.578;2023-05-08T02:51:02;23.53;;;8.90;;
35993;SDS011;22066;54.274;18.578;2023-05-08T02:53:34;22.87;;;9.37;;
35993;SDS011;22066;54.274;18.578;2023-05-08T02:56:02;24.63;;;9.57;;
35993;SDS011;22066;54.274;18.578;2023-05-08T02:58:34;18.43;;;6.67;;
35993;SDS011;22066;54.274;18.578;2023-05-08T03:01:06;14.30;;;6.33;;
35993;SDS011;22066;54.274;18.578;2023-05-08T03:03:47;15.20;;;6.53;;
35993;SDS011;22066;54.274;18.578;2023-05-08T03:06:16;16.70;;;6.43;;
35993;SDS011;22066;54.274;18.578;2023-05-08T03:08:43;16.00;;;5.80;;
35993;SDS011;22066;54.274;18.578;2023-05-08T03:11:13;16.93;;;6.33;;
35993;SDS011;22066;54.274;18.578;2023-05-08T03:13:39;12.50;;;5.23;;
35993;SDS011;22066;54.274;18.578;2023-05-08T03:16:08;14.07;;;6.23;;
35993;SDS011;22066;54.274;18.578;2023-05-08T03:18:40;15.67;;;6.50;;
35993;SDS011;22066;54.274;18.578;2023-05-08T03:21:07;15.17;;;5.93;;
35993;SDS011;22066;54.274;18.578;2023-05-08T03:23:34;14.37;;;6.37;;
35993;SDS011;22066;54.274;18.578;2023-05-08T03:26:01;20.23;;;6.57;;
35993;SDS011;22066;54.274;18.578;2023-05-08T03:28:28;11.90;;;5.23;;
35993;SDS011;22066;54.274;18.578;2023-05-08T03:30:55;16.80;;;5.80;;
35993;SDS011;22066;54.274;18.578;2023-05-08T03:33:21;12.80;;;5.83;;
35993;SDS011;22066;54.274;18.578;2023-05-08T03:35:48;16.73;;;6.13;;
35993;SDS011;22066;54.274;18.578;2023-05-08T03:38:14;10.87;;;5.50;;
35993;SDS011;22066;54.274;18.578;2023-05-08T03:40:41;13.93;;;5.70;;
35993;SDS011;22066;54.274;18.578;2023-05-08T03:43:07;13.93;;;5.53;;
35993;SDS011;22066;54.274;18.578;2023-05-08T03:45:34;16.20;;;6.43;;
35993;SDS011;22066;54.274;18.578;2023-05-08T03:48:01;13.60;;;6.23;;
35993;SDS011;22066;54.274;18.578;2023-05-08T03:50:28;17.37;;;6.33;;
35993;SDS011;22066;54.274;18.578;2023-05-08T03:52:54;14.47;;;6.67;;
35993;SDS011;22066;54.274;18.578;2023-05-08T03:55:21;16.50;;;6.57;;
35993;SDS011;22066;54.274;18.578;2023-05-08T03:57:55;13.33;;;5.60;;
35993;SDS011;22066;54.274;18.578;2023-05-08T04:00:28;13.80;;;6.33;;
35993;SDS011;22066;54.274;18.578;2023-05-08T04:03:04;13.93;;;5.90;;
35993;SDS011;22066;54.274;18.578;2023-05-08T04:05:37;11.73;;;6.03;;
35993;SDS011;22066;54.274;18.578;2023-05-08T04:08:08;13.57;;;6.60;;
35993;SDS011;22066;54.274;18.578;2023-05-08T04:10:40;16.60;;;6.23;;
35993;SDS011;22066;54.274;18.578;2023-05-08T04:13:12;17.53;;;6.93;;
35993;SDS011;22066;54.274;18.578;2023-05-08T04:15:49;15.00;;;7.23;;
35993;SDS011;22066;54.274;18.578;2023-05-08T04:18:17;12.05;;;6.10;;
35993;SDS011;22066;54.274;18.578;2023-05-08T04:20:45;17.07;;;7.60;;
35993;SDS011;22066;54.274;18.578;2023-05-08T04:23:13;21.10;;;8.35;;
35993;SDS011;22066;54.274;18.578;2023-05-08T04:25:41;24.67;;;9.27;;
35993;SDS011;22066;54.274;18.578;2023-05-08T04:28:07;21.57;;;8.73;;
35993;SDS011;22066;54.274;18.578;2023-05-08T04:30:34;22.57;;;10.27;;
35993;SDS011;22066;54.274;18.578;2023-05-08T04:33:01;20.00;;;9.00;;
35993;SDS011;22066;54.274;18.578;2023-05-08T04:35:27;25.30;;;10.10;;
35993;SDS011;22066;54.274;18.578;2023-05-08T04:37:54;18.30;;;8.20;;
35993;SDS011;22066;54.274;18.578;2023-05-08T04:40:20;13.23;;;6.77;;
35993;SDS011;22066;54.274;18.578;2023-05-08T04:42:46;12.33;;;6.33;;
35993;SDS011;22066;54.274;18.578;2023-05-08T04:45:12;17.47;;;5.90;;
35993;SDS011;22066;54.274;18.578;2023-05-08T04:47:38;16.60;;;6.50;;
35993;SDS011;22066;54.274;18.578;2023-05-08T04:50:04;15.40;;;5.90;;
35993;SDS011;22066;54.274;18.578;2023-05-08T04:52:30;14.37;;;5.50;;
35993;SDS011;22066;54.274;18.578;2023-05-08T04:54:56;21.50;;;5.43;;
35993;SDS011;22066;54.274;18.578;2023-05-08T04:57:22;10.50;;;5.40;;
35993;SDS011;22066;54.274;18.578;2023-05-08T04:59:48;10.07;;;5.10;;
35993;SDS011;22066;54.274;18.578;2023-05-08T05:02:15;10.50;;;4.87;;
35993;SDS011;22066;54.274;18.578;2023-05-08T05:04:41;14.10;;;6.63;;
35993;SDS011;22066;54.274;18.578;2023-05-08T05:07:07;12.90;;;5.47;;
35993;SDS011;22066;54.274;18.578;2023-05-08T05:09:33;12.15;;;4.93;;
35993;SDS011;22066;54.274;18.578;2023-05-08T05:12:01;12.07;;;4.95;;
35993;SDS011;22066;54.274;18.578;2023-05-08T05:14:27;14.07;;;5.45;;
35993;SDS011;22066;54.274;18.578;2023-05-08T05:16:53;11.77;;;5.65;;
35993;SDS011;22066;54.274;18.578;2023-05-08T05:19:19;11.98;;;5.72;;
35993;SDS011;22066;54.274;18.578;2023-05-08T05:21:45;13.02;;;5.53;;
35993;SDS011;22066;54.274;18.578;2023-05-08T05:24:11;12.32;;;6.03;;
35993;SDS011;22066;54.274;18.578;2023-05-08T05:26:37;11.32;;;5.53;;
35993;SDS011;22066;54.274;18.578;2023-05-08T05:29:04;14.10;;;5.90;;
35993;SDS011;22066;54.274;18.578;2023-05-08T05:31:30;14.70;;;5.55;;
35993;SDS011;22066;54.274;18.578;2023-05-08T05:33:56;12.05;;;5.32;;
35993;SDS011;22066;54.274;18.578;2023-05-08T05:36:22;14.80;;;5.10;;
35993;SDS011;22066;54.274;18.578;2023-05-08T05:38:48;10.80;;;5.03;;
35993;SDS011;22066;54.274;18.578;2023-05-08T05:41:14;17.45;;;5.88;;
35993;SDS011;22066;54.274;18.578;2023-05-08T05:43:40;10.45;;;4.82;;
35993;SDS011;22066;54.274;18.578;2023-05-08T05:46:06;10.70;;;4.68;;
35993;SDS011;22066;54.274;18.578;2023-05-08T05:48:33;10.65;;;5.38;;
35993;SDS011;22066;54.274;18.578;2023-05-08T05:50:59;11.70;;;5.25;;
35993;SDS011;22066;54.274;18.578;2023-05-08T05:53:25;13.80;;;5.85;;
35993;SDS011;22066;54.274;18.578;2023-05-08T05:55:52;18.38;;;5.65;;
35993;SDS011;22066;54.274;18.578;2023-05-08T05:58:18;16.38;;;6.20;;
35993;SDS011;22066;54.274;18.578;2023-05-08T06:00:44;18.05;;;6.25;;
35993;SDS011;22066;54.274;18.578;2023-05-08T06:03:11;13.15;;;5.38;;
35993;SDS011;22066;54.274;18.578;2023-05-08T06:05:38;12.38;;;5.47;;
35993;SDS011;22066;54.274;18.578;2023-05-08T06:08:04;12.38;;;5.80;;
35993;SDS011;22066;54.274;18.578;2023-05-08T06:10:30;19.23;;;4.93;;
35993;SDS011;22066;54.274;18.578;2023-05-08T06:12:57;25.30;;;5.57;;
35993;SDS011;22066;54.274;18.578;2023-05-08T06:15:23;14.88;;;5.00;;
35993;SDS011;22066;54.274;18.578;2023-05-08T06:17:49;12.48;;;5.38;;
35993;SDS011;22066;54.274;18.578;2023-05-08T06:20:15;14.48;;;5.38;;
35993;SDS011;22066;54.274;18.578;2023-05-08T06:22:41;8.50;;;4.53;;
35993;SDS011;22066;54.274;18.578;2023-05-08T06:25:07;15.45;;;4.68;;
35993;SDS011;22066;54.274;18.578;2023-05-08T06:27:34;24.45;;;5.30;;
35993;SDS011;22066;54.274;18.578;2023-05-08T06:30:00;13.75;;;4.57;;
35993;SDS011;22066;54.274;18.578;2023-05-08T06:32:26;13.13;;;5.78;;
35993;SDS011;22066;54.274;18.578;2023-05-08T06:34:52;13.48;;;5.18;;
35993;SDS011;22066;54.274;18.578;2023-05-08T06:37:18;11.15;;;4.70;;
35993;SDS011;22066;54.274;18.578;2023-05-08T06:39:44;13.18;;;4.70;;
35993;SDS011;22066;54.274;18.578;2023-05-08T06:42:10;48.47;;;7.43;;
35993;SDS011;22066;54.274;18.578;2023-05-08T06:44:36;16.80;;;5.60;;
35993;SDS011;22066;54.274;18.578;2023-05-08T06:47:02;15.93;;;4.90;;
35993;SDS011;22066;54.274;18.578;2023-05-08T06:49:28;19.98;;;7.10;;
35993;SDS011;22066;54.274;18.578;2023-05-08T06:51:55;12.40;;;6.35;;
35993;SDS011;22066;54.274;18.578;2023-05-08T06:54:21;19.92;;;4.90;;
35993;SDS011;22066;54.274;18.578;2023-05-08T06:56:47;14.25;;;4.97;;
35993;SDS011;22066;54.274;18.578;2023-05-08T06:59:13;19.92;;;5.32;;
35993;SDS011;22066;54.274;18.578;2023-05-08T07:01:39;14.43;;;5.13;;
35993;SDS011;22066;54.274;18.578;2023-05-08T07:04:05;19.00;;;5.75;;
35993;SDS011;22066;54.274;18.578;2023-05-08T07:06:31;7.10;;;3.88;;
35993;SDS011;22066;54.274;18.578;2023-05-08T07:08:58;15.55;;;4.40;;
35993;SDS011;22066;54.274;18.578;2023-05-08T07:11:24;10.40;;;4.57;;
35993;SDS011;22066;54.274;18.578;2023-05-08T07:13:50;8.85;;;4.55;;
35993;SDS011;22066;54.274;18.578;2023-05-08T07:16:16;9.18;;;4.05;;
35993;SDS011;22066;54.274;18.578;2023-05-08T07:18:42;11.68;;;4.45;;
35993;SDS011;22066;54.274;18.578;2023-05-08T07:21:09;10.05;;;4.45;;
35993;SDS011;22066;54.274;18.578;2023-05-08T07:23:35;10.85;;;4.18;;
35993;SDS011;22066;54.274;18.578;2023-05-08T07:26:01;20.38;;;4.57;;
35993;SDS011;22066;54.274;18.578;2023-05-08T07:28:27;15.20;;;4.43;;
35993;SDS011;22066;54.274;18.578;2023-05-08T07:30:53;13.05;;;4.40;;
35993;SDS011;22066;54.274;18.578;2023-05-08T07:33:19;9.02;;;4.32;;
35993;SDS011;22066;54.274;18.578;2023-05-08T07:35:45;6.80;;;3.80;;
35993;SDS011;22066;54.274;18.578;2023-05-08T07:38:11;17.83;;;4.40;;
35993;SDS011;22066;54.274;18.578;2023-05-08T07:40:37;8.25;;;3.25;;
35993;SDS011;22066;54.274;18.578;2023-05-08T07:43:03;15.02;;;3.70;;
35993;SDS011;22066;54.274;18.578;2023-05-08T07:45:29;8.00;;;3.47;;
35993;SDS011;22066;54.274;18.578;2023-05-08T07:47:56;10.98;;;3.70;;
35993;SDS011;22066;54.274;18.578;2023-05-08T07:52:49;10.48;;;3.40;;
35993;SDS011;22066;54.274;18.578;2023-05-08T07:55:16;10.18;;;3.70;;
35993;SDS011;22066;54.274;18.578;2023-05-08T07:57:42;51.88;;;7.18;;
35993;SDS011;22066;54.274;18.578;2023-05-08T08:00:09;9.27;;;3.83;;
35993;SDS011;22066;54.274;18.578;2023-05-08T08:02:35;7.45;;;4.43;;
35993;SDS011;22066;54.274;18.578;2023-05-08T08:05:02;8.43;;;3.72;;
35993;SDS011;22066;54.274;18.578;2023-05-08T08:07:29;10.17;;;4.53;;
35993;SDS011;22066;54.274;18.578;2023-05-08T08:12:22;19.40;;;4.15;;
35993;SDS011;22066;54.274;18.578;2023-05-08T08:14:48;9.13;;;3.90;;
35993;SDS011;22066;54.274;18.578;2023-05-08T08:17:14;76.53;;;13.18;;
35993;SDS011;22066;54.274;18.578;2023-05-08T08:19:40;18.30;;;3.80;;
35993;SDS011;22066;54.274;18.578;2023-05-08T08:22:06;6.45;;;3.90;;
35993;SDS011;22066;54.274;18.578;2023-05-08T08:24:32;7.47;;;3.40;;
35993;SDS011;22066;54.274;18.578;2023-05-08T08:26:58;25.17;;;6.65;;
35993;SDS011;22066;54.274;18.578;2023-05-08T08:29:24;6.10;;;2.78;;
35993;SDS011;22066;54.274;18.578;2023-05-08T08:31:50;6.43;;;2.47;;
35993;SDS011;22066;54.274;18.578;2023-05-08T08:36:44;7.50;;;3.00;;
35993;SDS011;22066;54.274;18.578;2023-05-08T08:39:10;6.63;;;2.50;;
35993;SDS011;22066;54.274;18.578;2023-05-08T08:41:37;6.63;;;2.78;;
35993;SDS011;22066;54.274;18.578;2023-05-08T08:44:03;6.82;;;2.33;;
35993;SDS011;22066;54.274;18.578;2023-05-08T08:46:30;4.85;;;2.15;;
35993;SDS011;22066;54.274;18.578;2023-05-08T08:49:02;26.63;;;3.63;;
35993;SDS011;22066;54.274;18.578;2023-05-08T08:51:32;5.22;;;2.53;;
35993;SDS011;22066;54.274;18.578;2023-05-08T08:56:29;7.60;;;3.40;;
35993;SDS011;22066;54.274;18.578;2023-05-08T09:01:23;12.25;;;2.90;;
35993;SDS011;22066;54.274;18.578;2023-05-08T09:03:53;6.10;;;2.65;;
35993;SDS011;22066;54.274;18.578;2023-05-08T09:06:19;11.15;;;2.78;;
35993;SDS011;22066;54.274;18.578;2023-05-08T09:08:45;19.58;;;3.55;;
35993;SDS011;22066;54.274;18.578;2023-05-08T09:11:12;8.00;;;2.85;;
35993;SDS011;22066;54.274;18.578;2023-05-08T09:13:38;4.97;;;2.85;;
35993;SDS011;22066;54.274;18.578;2023-05-08T09:16:04;13.98;;;3.15;;
35993;SDS011;22066;54.274;18.578;2023-05-08T09:18:30;4.28;;;2.45;;
35993;SDS011;22066;54.274;18.578;2023-05-08T09:20:56;5.45;;;2.78;;
35993;SDS011;22066;54.274;18.578;2023-05-08T09:23:24;5.47;;;2.70;;
35993;SDS011;22066;54.274;18.578;2023-05-08T09:25:50;5.47;;;3.13;;
35993;SDS011;22066;54.274;18.578;2023-05-08T09:28:23;4.55;;;2.40;;
35993;SDS011;22066;54.274;18.578;2023-05-08T09:33:16;6.22;;;2.72;;
35993;SDS011;22066;54.274;18.578;2023-05-08T09:35:42;10.13;;;2.75;;
35993;SDS011;22066;54.274;18.578;2023-05-08T09:38:08;5.43;;;2.28;;
35993;SDS011;22066;54.274;18.578;2023-05-08T09:40:34;4.85;;;2.30;;
35993;SDS011;22066;54.274;18.578;2023-05-08T09:43:12;6.95;;;2.75;;
35993;SDS011;22066;54.274;18.578;2023-05-08T09:45:38;4.57;;;2.25;;
35993;SDS011;22066;54.274;18.578;2023-05-08T09:48:05;4.70;;;2.40;;
35993;SDS011;22066;54.274;18.578;2023-05-08T09:50:31;12.82;;;3.83;;
35993;SDS011;22066;54.274;18.578;2023-05-08T09:52:57;5.68;;;2.38;;
35993;SDS011;22066;54.274;18.578;2023-05-08T09:55:23;5.82;;;2.15;;
35993;SDS011;22066;54.274;18.578;2023-05-08T09:57:53;6.20;;;2.42;;
35993;SDS011;22066;54.274;18.578;2023-05-08T10:00:21;6.50;;;2.25;;
35993;SDS011;22066;54.274;18.578;2023-05-08T10:02:54;6.00;;;2.40;;
35993;SDS011;22066;54.274;18.578;2023-05-08T10:07:49;4.60;;;2.60;;
35993;SDS011;22066;54.274;18.578;2023-05-08T10:10:21;18.00;;;3.28;;
35993;SDS011;22066;54.274;18.578;2023-05-08T10:12:50;15.77;;;3.30;;
35993;SDS011;22066;54.274;18.578;2023-05-08T10:15:16;4.22;;;2.60;;
35993;SDS011;22066;54.274;18.578;2023-05-08T10:17:43;4.95;;;2.47;;
35993;SDS011;22066;54.274;18.578;2023-05-08T10:20:11;4.18;;;2.30;;
35993;SDS011;22066;54.274;18.578;2023-05-08T10:22:39;4.80;;;2.45;;
35993;SDS011;22066;54.274;18.578;2023-05-08T10:25:14;5.25;;;2.67;;
35993;SDS011;22066;54.274;18.578;2023-05-08T10:27:44;7.75;;;2.70;;
35993;SDS011;22066;54.274;18.578;2023-05-08T10:30:12;4.10;;;2.20;;
35993;SDS011;22066;54.274;18.578;2023-05-08T10:32:41;9.90;;;3.03;;
35993;SDS011;22066;54.274;18.578;2023-05-08T10:35:09;14.38;;;3.65;;
35993;SDS011;22066;54.274;18.578;2023-05-08T10:37:35;11.60;;;2.80;;
35993;SDS011;22066;54.274;18.578;2023-05-08T10:40:02;7.22;;;2.63;;
35993;SDS011;22066;54.274;18.578;2023-05-08T10:44:55;8.77;;;2.83;;
35993;SDS011;22066;54.274;18.578;2023-05-08T10:52:17;4.97;;;2.53;;
35993;SDS011;22066;54.274;18.578;2023-05-08T10:57:29;10.18;;;2.88;;
35993;SDS011;22066;54.274;18.578;2023-05-08T10:59:55;6.68;;;2.65;;
35993;SDS011;22066;54.274;18.578;2023-05-08T11:02:25;9.15;;;3.38;;
35993;SDS011;22066;54.274;18.578;2023-05-08T11:04:52;6.20;;;2.20;;
35993;SDS011;22066;54.274;18.578;2023-05-08T11:07:18;33.63;;;4.53;;
35993;SDS011;22066;54.274;18.578;2023-05-08T11:09:45;4.70;;;2.60;;
35993;SDS011;22066;54.274;18.578;2023-05-08T11:12:25;8.82;;;4.13;;
35993;SDS011;22066;54.274;18.578;2023-05-08T11:15:03;5.43;;;2.58;;
35993;SDS011;22066;54.274;18.578;2023-05-08T11:17:33;6.22;;;2.47;;
35993;SDS011;22066;54.274;18.578;2023-05-08T11:20:00;5.32;;;2.75;;
35993;SDS011;22066;54.274;18.578;2023-05-08T11:22:30;5.22;;;2.63;;
35993;SDS011;22066;54.274;18.578;2023-05-08T11:25:06;7.65;;;2.80;;
35993;SDS011;22066;54.274;18.578;2023-05-08T11:38:13;4.35;;;2.45;;
35993;SDS011;22066;54.274;18.578;2023-05-08T11:40:46;6.97;;;2.78;;
35993;SDS011;22066;54.274;18.578;2023-05-08T11:43:22;5.88;;;2.60;;
35993;SDS011;22066;54.274;18.578;2023-05-08T11:45:50;4.57;;;2.47;;
35993;SDS011;22066;54.274;18.578;2023-05-08T11:48:17;13.20;;;3.75;;
35993;SDS011;22066;54.274;18.578;2023-05-08T11:50:43;6.30;;;2.63;;
35993;SDS011;22066;54.274;18.578;2023-05-08T11:53:10;12.70;;;3.78;;
35993;SDS011;22066;54.274;18.578;2023-05-08T11:55:37;6.95;;;3.08;;
35993;SDS011;22066;54.274;18.578;2023-05-08T11:58:10;7.40;;;2.95;;
35993;SDS011;22066;54.274;18.578;2023-05-08T12:00:39;6.72;;;2.90;;
35993;SDS011;22066;54.274;18.578;2023-05-08T12:03:06;6.40;;;2.38;;
35993;SDS011;22066;54.274;18.578;2023-05-08T12:05:32;5.05;;;2.55;;
35993;SDS011;22066;54.274;18.578;2023-05-08T12:07:58;6.97;;;2.92;;
35993;SDS011;22066;54.274;18.578;2023-05-08T12:10:24;9.73;;;3.03;;
35993;SDS011;22066;54.274;18.578;2023-05-08T12:12:50;8.00;;;3.40;;
35993;SDS011;22066;54.274;18.578;2023-05-08T12:15:16;6.90;;;3.40;;
35993;SDS011;22066;54.274;18.578;2023-05-08T12:17:42;6.35;;;2.75;;
35993;SDS011;22066;54.274;18.578;2023-05-08T12:20:12;7.28;;;2.40;;
35993;SDS011;22066;54.274;18.578;2023-05-08T12:22:41;7.05;;;2.53;;
35993;SDS011;22066;54.274;18.578;2023-05-08T12:25:08;6.80;;;2.20;;
35993;SDS011;22066;54.274;18.578;2023-05-08T12:27:35;7.15;;;2.63;;
35993;SDS011;22066;54.274;18.578;2023-05-08T12:30:08;22.10;;;4.28;;
35993;SDS011;22066;54.274;18.578;2023-05-08T12:32:35;11.15;;;2.50;;
35993;SDS011;22066;54.274;18.578;2023-05-08T12:35:01;11.75;;;3.00;;
35993;SDS011;22066;54.274;18.578;2023-05-08T12:37:27;5.85;;;3.22;;
35993;SDS011;22066;54.274;18.578;2023-05-08T12:39:54;9.48;;;2.97;;
35993;SDS011;22066;54.274;18.578;2023-05-08T12:42:20;5.93;;;2.80;;
35993;SDS011;22066;54.274;18.578;2023-05-08T12:44:52;14.93;;;3.78;;
35993;SDS011;22066;54.274;18.578;2023-05-08T12:47:18;4.95;;;2.78;;
35993;SDS011;22066;54.274;18.578;2023-05-08T12:49:44;14.02;;;4.35;;
35993;SDS011;22066;54.274;18.578;2023-05-08T12:52:13;6.65;;;2.90;;
35993;SDS011;22066;54.274;18.578;2023-05-08T12:54:44;8.48;;;2.60;;
35993;SDS011;22066;54.274;18.578;2023-05-08T12:57:14;5.30;;;2.70;;
35993;SDS011;22066;54.274;18.578;2023-05-08T12:59:41;8.38;;;3.97;;
35993;SDS011;22066;54.274;18.578;2023-05-08T13:02:25;6.50;;;2.72;;
35993;SDS011;22066;54.274;18.578;2023-05-08T13:04:54;4.82;;;2.70;;
35993;SDS011;22066;54.274;18.578;2023-05-08T13:07:21;6.82;;;2.58;;
35993;SDS011;22066;54.274;18.578;2023-05-08T13:09:59;16.88;;;3.47;;
35993;SDS011;22066;54.274;18.578;2023-05-08T13:12:28;5.07;;;2.88;;
35993;SDS011;22066;54.274;18.578;2023-05-08T13:14:54;9.13;;;2.58;;
35993;SDS011;22066;54.274;18.578;2023-05-08T13:17:20;7.63;;;2.83;;
35993;SDS011;22066;54.274;18.578;2023-05-08T13:19:46;8.05;;;3.00;;
35993;SDS011;22066;54.274;18.578;2023-05-08T13:22:12;3.92;;;2.25;;
35993;SDS011;22066;54.274;18.578;2023-05-08T13:24:38;7.70;;;2.25;;
35993;SDS011;22066;54.274;18.578;2023-05-08T13:27:04;5.63;;;2.40;;
35993;SDS011;22066;54.274;18.578;2023-05-08T13:29:30;5.10;;;2.47;;
35993;SDS011;22066;54.274;18.578;2023-05-08T13:31:56;4.70;;;2.45;;
35993;SDS011;22066;54.274;18.578;2023-05-08T13:34:22;10.90;;;2.83;;
35993;SDS011;22066;54.274;18.578;2023-05-08T13:36:49;8.02;;;2.50;;
35993;SDS011;22066;54.274;18.578;2023-05-08T13:39:16;5.00;;;2.38;;
35993;SDS011;22066;54.274;18.578;2023-05-08T13:41:42;7.72;;;2.53;;
35993;SDS011;22066;54.274;18.578;2023-05-08T13:44:08;6.47;;;2.75;;
35993;SDS011;22066;54.274;18.578;2023-05-08T13:46:34;8.18;;;3.45;;
35993;SDS011;22066;54.274;18.578;2023-05-08T13:49:00;6.13;;;2.28;;
35993;SDS011;22066;54.274;18.578;2023-05-08T13:51:26;5.57;;;3.17;;
35993;SDS011;22066;54.274;18.578;2023-05-08T13:53:52;5.32;;;2.58;;
35993;SDS011;22066;54.274;18.578;2023-05-08T13:56:18;4.90;;;2.30;;
35993;SDS011;22066;54.274;18.578;2023-05-08T13:58:44;5.22;;;2.35;;
35993;SDS011;22066;54.274;18.578;2023-05-08T14:01:10;6.40;;;3.03;;
35993;SDS011;22066;54.274;18.578;2023-05-08T14:03:36;9.93;;;2.42;;
35993;SDS011;22066;54.274;18.578;2023-05-08T14:06:03;7.55;;;3.83;;
35993;SDS011;22066;54.274;18.578;2023-05-08T14:08:30;19.33;;;10.65;;
35993;SDS011;22066;54.274;18.578;2023-05-08T14:10:56;23.60;;;9.40;;
35993;SDS011;22066;54.274;18.578;2023-05-08T14:13:22;19.77;;;9.07;;
35993;SDS011;22066;54.274;18.578;2023-05-08T14:15:48;7.60;;;3.30;;
35993;SDS011;22066;54.274;18.578;2023-05-08T14:18:14;7.60;;;4.22;;
35993;SDS011;22066;54.274;18.578;2023-05-08T14:20:40;10.23;;;3.97;;
35993;SDS011;22066;54.274;18.578;2023-05-08T14:23:06;5.63;;;2.47;;
35993;SDS011;22066;54.274;18.578;2023-05-08T14:25:32;8.23;;;4.18;;
35993;SDS011;22066;54.274;18.578;2023-05-08T14:27:58;7.80;;;3.20;;
35993;SDS011;22066;54.274;18.578;2023-05-08T14:30:24;9.55;;;3.30;;
35993;SDS011;22066;54.274;18.578;2023-05-08T14:32:50;16.58;;;10.50;;
35993;SDS011;22066;54.274;18.578;2023-05-08T14:35:16;9.05;;;4.82;;
35993;SDS011;22066;54.274;18.578;2023-05-08T14:37:42;4.90;;;2.33;;
35993;SDS011;22066;54.274;18.578;2023-05-08T14:40:08;8.63;;;3.10;;
35993;SDS011;22066;54.274;18.578;2023-05-08T14:42:34;19.42;;;6.70;;
35993;SDS011;22066;54.274;18.578;2023-05-08T14:45:00;16.30;;;5.97;;
35993;SDS011;22066;54.274;18.578;2023-05-08T14:47:26;9.18;;;3.72;;
35993;SDS011;22066;54.274;18.578;2023-05-08T14:49:52;21.92;;;7.00;;
35993;SDS011;22066;54.274;18.578;2023-05-08T14:52:18;7.32;;;2.75;;
35993;SDS011;22066;54.274;18.578;2023-05-08T14:54:44;10.55;;;3.08;;
35993;SDS011;22066;54.274;18.578;2023-05-08T14:57:16;13.55;;;5.10;;
35993;SDS011;22066;54.274;18.578;2023-05-08T14:59:42;4.93;;;2.28;;
35993;SDS011;22066;54.274;18.578;2023-05-08T15:02:08;6.47;;;2.90;;
35993;SDS011;22066;54.274;18.578;2023-05-08T15:04:34;9.75;;;3.30;;
35993;SDS011;22066;54.274;18.578;2023-05-08T15:07:05;14.25;;;4.20;;
35993;SDS011;22066;54.274;18.578;2023-05-08T15:09:31;17.20;;;4.43;;
35993;SDS011;22066;54.274;18.578;2023-05-08T15:11:57;12.98;;;3.72;;
35993;SDS011;22066;54.274;18.578;2023-05-08T15:14:23;15.18;;;4.13;;
35993;SDS011;22066;54.274;18.578;2023-05-08T15:16:50;9.35;;;3.00;;
35993;SDS011;22066;54.274;18.578;2023-05-08T15:19:16;4.95;;;2.55;;